Time;durP1;ratioP1;P1;durP2;ratioP2;P2;SDS_P1;SDS_P2;PMS_P1;PMS_P2;Temp;Humidity;BMP_temperature;BMP_pressure;BME280_temperature;BME280_humidity;BME280_pressure;Samples;Min_cycle;Max_cycle;Signal;HPM_P1;HPM_P2
2022/08/02 00:01:18;;;;;;;8.03;3.30;;;;;;;15.13;79.25;100650.63;5118814;28;20477;-64
2022/08/02 00:03:45;;;;;;;4.70;3.70;;;;;;;15.09;79.08;100654.66;5120088;28;20497;-64
2022/08/02 00:06:12;;;;;;;6.57;3.80;;;;;;;15.04;79.52;100651.59;5118862;28;20498;-64
2022/08/02 00:08:39;;;;;;;6.27;3.90;;;;;;;14.99;79.66;100662.81;5120019;28;20530;-64
2022/08/02 00:11:07;;;;;;;6.10;3.83;;;;;;;14.96;80.11;100641.59;5119446;28;20470;-64
2022/08/02 00:13:34;;;;;;;9.53;3.40;;;;;;;14.93;80.21;100641.06;5119815;28;20456;-64
2022/08/02 00:16:00;;;;;;;9.67;3.70;;;;;;;14.91;80.53;100645.78;5118970;28;20490;-64
2022/08/02 00:18:27;;;;;;;8.83;3.60;;;;;;;14.96;80.50;100638.91;5119061;28;20792;-64
2022/08/02 00:20:54;;;;;;;9.40;4.37;;;;;;;14.94;80.59;100629.31;5118253;28;20482;-64
2022/08/02 00:23:21;;;;;;;10.40;4.00;;;;;;;14.82;81.03;100634.97;5119784;28;20504;-64
2022/08/02 00:25:48;;;;;;;6.60;4.30;;;;;;;14.75;81.13;100633.06;5118847;28;20473;-63
2022/08/02 00:28:16;;;;;;;10.73;4.30;;;;;;;14.72;81.26;100633.38;5119079;28;20438;-64
2022/08/02 00:30:42;;;;;;;8.47;4.33;;;;;;;14.71;81.44;100637.94;5118805;28;20470;-64
2022/08/02 00:33:09;;;;;;;10.00;4.53;;;;;;;14.65;81.08;100628.66;5119407;28;20447;-64
2022/08/02 00:35:36;;;;;;;9.13;4.40;;;;;;;14.58;81.84;100619.53;5118648;28;20478;-64
2022/08/02 00:38:04;;;;;;;6.93;3.90;;;;;;;14.59;82.33;100631.97;5119513;28;20503;-64
2022/08/02 00:40:30;;;;;;;8.77;4.43;;;;;;;14.59;82.33;100636.50;5118447;28;20469;-64
2022/08/02 00:43:03;;;;;;;4.70;3.90;;;;;;;14.61;82.43;100637.19;5119614;28;20487;-64
2022/08/02 00:45:31;;;;;;;12.33;4.90;;;;;;;14.58;82.42;100638.34;5117470;28;20472;-64
2022/08/02 00:47:58;;;;;;;6.87;5.27;;;;;;;14.55;82.53;100644.00;5118097;28;20573;-64
2022/08/02 00:50:25;;;;;;;8.03;4.43;;;;;;;14.53;82.41;100637.94;5118141;28;20443;-64
2022/08/02 00:52:52;;;;;;;8.90;4.60;;;;;;;14.54;82.54;100642.31;5119331;28;20438;-64
2022/08/02 00:55:19;;;;;;;10.57;4.20;;;;;;;14.50;82.64;100646.31;5118227;28;20449;-63
2022/08/02 00:57:45;;;;;;;9.40;4.80;;;;;;;14.45;82.53;100640.56;5119093;28;20854;-64
2022/08/02 01:00:13;;;;;;;9.97;4.63;;;;;;;14.41;82.76;100637.34;5118014;28;20438;-64
2022/08/02 01:02:41;;;;;;;6.27;4.57;;;;;;;14.39;83.12;100646.56;5118453;28;20539;-64
2022/08/02 01:05:09;;;;;;;7.43;4.60;;;;;;;14.35;83.17;100647.88;5118923;28;20959;-64
2022/08/02 01:07:36;;;;;;;7.70;4.53;;;;;;;14.36;83.33;100638.81;5118682;28;20458;-64
2022/08/02 01:10:03;;;;;;;6.40;4.60;;;;;;;14.35;83.98;100642.50;5118577;28;20450;-65
2022/08/02 01:12:30;;;;;;;7.57;5.30;;;;;;;14.35;83.76;100642.50;5098520;28;20485;-65
2022/08/02 01:14:59;;;;;;;9.33;4.70;;;;;;;14.34;84.12;100635.41;5116228;28;20446;-65
2022/08/02 01:17:30;;;;;;;7.53;4.53;;;;;;;14.34;84.12;100632.72;5117898;28;20543;-65
2022/08/02 01:20:06;;;;;;;9.10;5.33;;;;;;;14.28;84.12;100640.41;5119057;28;20438;-64
2022/08/02 01:22:50;;;;;;;8.03;4.83;;;;;;;14.28;84.36;100635.03;5119082;28;20477;-65
2022/08/02 01:25:29;;;;;;;9.83;4.30;;;;;;;14.23;84.23;100636.50;5117860;28;20500;-65
2022/08/02 01:28:25;;;;;;;8.13;5.23;;;;;;;14.20;84.56;100634.13;5119359;28;20442;-64
2022/08/02 01:30:57;;;;;;;8.07;5.03;;;;;;;14.13;84.57;100628.56;5117731;28;20503;-64
2022/08/02 01:33:28;;;;;;;6.97;4.67;;;;;;;14.07;84.70;100634.53;5118395;28;20472;-64
2022/08/02 01:35:57;;;;;;;8.67;4.30;;;;;;;14.05;84.84;100628.47;5118054;28;20473;-65
2022/08/02 01:38:33;;;;;;;6.83;4.60;;;;;;;14.02;85.05;100632.28;5118464;28;20478;-64
2022/08/02 01:41:01;;;;;;;7.40;4.80;;;;;;;14.03;84.92;100636.69;5129663;27;20469;-65
2022/08/02 01:43:30;;;;;;;5.20;4.50;;;;;;;14.00;84.64;100638.84;5122822;28;20567;-65
2022/08/02 01:45:58;;;;;;;12.27;4.50;;;;;;;13.98;84.84;100636.28;5121589;28;20478;-64
2022/08/02 01:48:26;;;;;;;7.73;5.27;;;;;;;13.97;84.69;100631.06;5121469;28;20446;-64
2022/08/02 01:50:54;;;;;;;8.37;5.40;;;;;;;13.89;85.07;100632.69;5121649;28;20943;-63
2022/08/02 01:53:24;;;;;;;6.90;4.70;;;;;;;13.88;84.95;100630.97;5122904;28;20434;-63
2022/08/02 01:55:51;;;;;;;6.10;4.77;;;;;;;13.89;84.85;100634.53;5121619;28;20480;-63
2022/08/02 01:58:21;;;;;;;7.37;5.13;;;;;;;13.83;84.79;100635.13;5122890;28;21246;-64
2022/08/02 02:00:50;;;;;;;4.70;4.30;;;;;;;13.81;85.15;100635.28;5121925;28;20511;-64
2022/08/02 02:03:20;;;;;;;8.33;5.10;;;;;;;13.82;85.00;100625.38;5121556;28;20542;-64
2022/08/02 02:05:48;;;;;;;8.40;4.97;;;;;;;13.76;84.90;100632.22;5121758;28;20530;-64
2022/08/02 02:08:15;;;;;;;6.30;4.50;;;;;;;13.69;84.91;100626.59;5122597;28;20446;-64
2022/08/02 02:10:43;;;;;;;6.10;4.43;;;;;;;13.69;84.93;100621.22;5120769;28;20554;-64
2022/08/02 02:13:13;;;;;;;6.40;4.53;;;;;;;13.71;84.99;100618.38;5121887;28;20449;-64
2022/08/02 02:15:43;;;;;;;6.30;4.73;;;;;;;13.67;84.97;100619.69;5120977;28;20472;-64
2022/08/02 02:18:15;;;;;;;7.40;5.60;;;;;;;13.66;84.86;100620.69;5121213;28;20450;-64
2022/08/02 02:20:42;;;;;;;6.33;4.80;;;;;;;13.64;84.81;100620.81;5114143;28;20477;-64
2022/08/02 02:23:09;;;;;;;6.70;4.60;;;;;;;13.63;85.21;100615.63;5121810;28;20511;-64
2022/08/02 02:25:36;;;;;;;5.80;4.60;;;;;;;13.59;84.99;100614.22;5121090;28;20462;-64
2022/08/02 02:28:07;;;;;;;6.23;4.77;;;;;;;13.53;85.17;100602.25;5122591;28;20517;-64
2022/08/02 02:30:34;;;;;;;6.00;5.00;;;;;;;13.53;85.04;100603.09;5119582;28;20470;-64
2022/08/02 02:33:02;;;;;;;6.40;4.60;;;;;;;13.83;83.78;100594.81;5121279;28;20445;-63
2022/08/02 02:35:35;;;;;;;6.03;4.90;;;;;;;13.59;84.30;100592.72;5120707;28;20470;-64
2022/08/02 02:38:03;;;;;;;9.13;5.20;;;;;;;13.44;84.74;100587.88;5121598;28;20545;-65
2022/08/02 02:40:30;;;;;;;5.37;3.87;;;;;;;13.41;85.10;100582.81;5120872;28;20529;-65
2022/08/02 02:42:58;;;;;;;6.03;4.23;;;;;;;13.40;85.21;100581.09;5121346;28;20681;-65
2022/08/02 02:45:25;;;;;;;7.47;6.50;;;;;;;13.43;85.74;100579.97;5120079;28;20450;-65
2022/08/02 02:47:53;;;;;;;6.50;4.10;;;;;;;13.40;85.36;100581.09;5121376;27;20475;-65
2022/08/02 02:50:20;;;;;;;6.03;4.87;;;;;;;13.31;85.74;100576.63;5142019;27;20429;-65
2022/08/02 02:52:49;;;;;;;11.27;5.50;;;;;;;13.32;86.06;100579.19;5133360;27;20430;-65
2022/08/02 02:55:17;;;;;;;7.93;5.47;;;;;;;13.38;85.61;100575.03;5121246;28;20458;-65
2022/08/02 02:57:44;;;;;;;5.37;4.87;;;;;;;13.35;85.85;100583.44;5121547;28;20837;-65
2022/08/02 03:00:13;;;;;;;8.60;5.83;;;;;;;13.36;86.21;100582.41;5121030;28;20435;-65
2022/08/02 03:02:41;;;;;;;7.53;5.20;;;;;;;13.34;85.88;100574.50;5120416;28;20959;-65
2022/08/02 03:05:10;;;;;;;5.90;4.93;;;;;;;13.39;85.75;100575.91;5120394;28;20461;-65
2022/08/02 03:07:37;;;;;;;9.10;5.40;;;;;;;13.43;85.73;100563.84;5120720;28;20449;-66
2022/08/02 03:10:07;;;;;;;7.00;5.20;;;;;;;13.44;86.05;100569.09;5120792;28;20480;-64
2022/08/02 03:12:34;;;;;;;8.23;5.63;;;;;;;13.43;85.81;100577.28;5121188;28;21235;-64
2022/08/02 03:15:04;;;;;;;10.57;5.80;;;;;;;13.45;85.37;100576.13;5121513;28;20450;-64
2022/08/02 03:17:41;;;;;;;7.37;5.10;;;;;;;13.43;85.28;100580.81;5119740;28;20575;-65
2022/08/02 03:20:10;;;;;;;7.87;5.10;;;;;;;13.39;85.41;100576.75;5104788;28;20469;-64
2022/08/02 03:22:37;;;;;;;7.20;5.00;;;;;;;13.34;85.53;100582.56;5121732;28;20438;-65
2022/08/02 03:25:06;;;;;;;7.93;5.00;;;;;;;13.31;85.45;100574.78;5121506;28;20478;-65
2022/08/02 03:27:33;;;;;;;8.43;4.50;;;;;;;13.36;85.18;100567.13;5120851;28;20472;-65
2022/08/02 03:30:00;;;;;;;8.80;4.87;;;;;;;13.29;85.31;100576.75;5120886;28;20435;-65
2022/08/02 03:32:27;;;;;;;8.13;4.97;;;;;;;13.24;85.40;100576.38;5119706;28;20470;-64
2022/08/02 03:34:54;;;;;;;6.73;4.70;;;;;;;13.19;85.31;100582.22;5120704;28;20909;-64
2022/08/02 03:37:21;;;;;;;6.23;4.80;;;;;;;13.18;85.28;100577.81;5119895;28;20547;-65
2022/08/02 03:39:48;;;;;;;9.20;4.77;;;;;;;13.19;85.17;100581.34;5120590;28;20468;-64
2022/08/02 03:42:17;;;;;;;7.10;5.17;;;;;;;13.13;85.20;100577.41;5120126;28;20553;-64
2022/08/02 03:44:44;;;;;;;6.30;5.27;;;;;;;13.15;85.35;100578.09;5119792;28;20506;-64
2022/08/02 03:47:11;;;;;;;7.47;5.00;;;;;;;13.17;85.27;100592.22;5118781;28;20470;-64
2022/08/02 03:49:38;;;;;;;10.83;5.73;;;;;;;13.14;85.62;100589.88;5120467;28;20433;-65
2022/08/02 03:52:06;;;;;;;5.53;5.00;;;;;;;13.14;85.38;100583.63;5119598;28;20512;-65
2022/08/02 03:54:33;;;;;;;6.60;5.67;;;;;;;13.21;85.34;100578.50;5120584;28;20442;-65
2022/08/02 03:57:00;;;;;;;8.70;4.70;;;;;;;13.21;85.58;100563.25;5119808;28;20590;-65
2022/08/02 03:59:29;;;;;;;7.40;5.10;;;;;;;13.27;85.07;100564.50;5120028;28;20441;-66
2022/08/02 04:01:55;;;;;;;9.40;5.70;;;;;;;13.33;85.17;100572.84;5118377;28;20595;-66
2022/08/02 04:04:22;;;;;;;8.97;5.27;;;;;;;13.49;84.46;100566.78;5119889;28;20454;-65
2022/08/02 04:06:49;;;;;;;5.07;4.33;;;;;;;13.56;84.34;100570.56;5119455;28;20593;-65
2022/08/02 04:09:16;;;;;;;7.80;5.40;;;;;;;13.55;83.80;100568.84;5120228;28;20446;-65
2022/08/02 04:11:42;;;;;;;7.93;4.30;;;;;;;13.62;83.31;100565.56;5119578;28;20465;-65
2022/08/02 04:14:10;;;;;;;6.53;4.90;;;;;;;13.64;82.96;100580.53;5119348;28;20430;-65
2022/08/02 04:16:41;;;;;;;10.53;4.80;;;;;;;13.72;83.56;100582.47;5116059;28;20503;-65
2022/08/02 04:19:10;;;;;;;7.93;5.13;;;;;;;13.94;84.19;100575.78;5120382;28;20468;-65
2022/08/02 04:21:40;;;;;;;5.27;4.20;;;;;;;14.15;83.65;100588.03;5119130;28;20470;-65
2022/08/02 04:24:09;;;;;;;9.80;4.63;;;;;;;14.02;81.14;100586.59;5119561;28;20515;-65
2022/08/02 04:26:36;;;;;;;7.87;4.87;;;;;;;14.13;81.67;100590.91;5117589;28;20500;-65
2022/08/02 04:29:04;;;;;;;6.20;4.40;;;;;;;14.48;81.41;100592.69;5119740;28;20495;-65
2022/08/02 04:31:31;;;;;;;5.93;4.67;;;;;;;14.63;78.64;100593.00;5118753;28;20478;-65
2022/08/02 04:34:00;;;;;;;5.20;4.30;;;;;;;14.43;77.92;100591.47;5119461;28;20439;-65
2022/08/02 04:36:27;;;;;;;8.23;4.53;;;;;;;14.43;78.21;100588.78;5118670;28;20478;-65
2022/08/02 04:38:53;;;;;;;7.70;4.77;;;;;;;16.43;73.23;100594.47;5119339;28;20446;-64
2022/08/02 04:41:20;;;;;;;4.20;3.80;;;;;;;17.60;65.71;100580.41;5118778;28;20461;-63
2022/08/02 04:43:47;;;;;;;3.53;3.23;;;;;;;18.26;63.41;100588.91;5118527;28;20474;-64
2022/08/02 04:46:14;;;;;;;5.10;3.67;;;;;;;18.93;61.06;100585.38;5118134;28;20477;-65
2022/08/02 04:48:41;;;;;;;4.30;2.87;;;;;;;17.97;63.07;100581.56;5118758;28;20468;-65
2022/08/02 04:51:09;;;;;;;5.50;3.50;;;;;;;17.30;66.83;100581.06;5118540;28;20531;-64
2022/08/02 04:53:36;;;;;;;5.90;3.03;;;;;;;17.47;66.54;100586.41;5119274;28;20446;-64
2022/08/02 04:56:02;;;;;;;7.97;3.40;;;;;;;17.06;66.94;100592.81;5110279;28;20502;-64
2022/08/02 04:58:29;;;;;;;7.70;4.30;;;;;;;16.36;70.16;100588.06;5116995;28;20476;-64
2022/08/02 05:00:56;;;;;;;8.43;3.90;;;;;;;16.29;70.61;100592.47;5117460;28;21267;-64
2022/08/02 05:03:23;;;;;;;4.33;3.33;;;;;;;16.32;70.74;100594.84;5117851;28;20470;-64
2022/08/02 05:05:51;;;;;;;6.87;3.60;;;;;;;17.10;69.11;100590.63;5115263;28;20480;-63
2022/08/02 05:08:19;;;;;;;8.20;3.60;;;;;;;18.32;64.55;100593.59;5119027;28;20465;-63
2022/08/02 05:10:46;;;;;;;5.77;4.13;;;;;;;18.84;62.05;100593.78;5117841;28;20470;-63
2022/08/02 05:13:13;;;;;;;6.33;4.37;;;;;;;18.95;60.84;100594.16;5117608;28;20490;-63
2022/08/02 05:15:39;;;;;;;7.17;3.60;;;;;;;20.06;58.27;100587.75;5116491;28;20490;-63
2022/08/02 05:18:06;;;;;;;6.80;3.23;;;;;;;21.41;53.85;100592.00;5117235;28;20710;-65
2022/08/02 05:20:33;;;;;;;5.73;4.27;;;;;;;20.99;53.92;100584.91;5116036;28;20513;-65
2022/08/02 05:23:00;;;;;;;5.50;4.27;;;;;;;21.76;52.51;100585.63;5112496;28;20450;-64
2022/08/02 05:25:28;;;;;;;6.07;3.67;;;;;;;21.22;53.77;100588.16;5109528;27;20469;-64
2022/08/02 05:27:55;;;;;;;3.63;3.33;;;;;;;22.52;50.25;100587.19;5121778;28;20460;-64
2022/08/02 05:30:22;;;;;;;4.43;2.83;;;;;;;24.10;46.49;100587.84;5119428;28;20443;-66
2022/08/02 05:32:51;;;;;;;6.60;3.50;;;;;;;22.98;48.88;100588.97;5112343;28;20456;-64
2022/08/02 05:35:19;;;;;;;6.80;3.57;;;;;;;22.74;49.80;100593.22;5105508;28;20481;-64
2022/08/02 05:37:47;;;;;;;9.07;3.00;;;;;;;23.08;48.95;100580.38;5114041;28;20477;-65
2022/08/02 05:40:13;;;;;;;4.80;2.70;;;;;;;22.83;49.71;100583.78;5117311;27;20430;-65
2022/08/02 05:42:42;;;;;;;4.03;3.20;;;;;;;22.25;51.42;100587.16;5117202;28;20438;-64
2022/08/02 05:45:09;;;;;;;5.33;2.87;;;;;;;23.14;49.95;100584.97;5112530;28;20558;-65
2022/08/02 05:47:36;;;;;;;7.23;3.40;;;;;;;23.09;49.66;100584.78;5122978;28;20468;-65
2022/08/02 05:50:04;;;;;;;4.97;3.40;;;;;;;24.13;47.16;100587.38;5116683;28;20442;-67
2022/08/02 05:52:40;;;;;;;4.40;4.00;;;;;;;24.06;48.19;100592.88;5113749;28;20490;-75
2022/08/02 05:55:10;;;;;;;6.83;3.83;;;;;;;25.71;44.13;100585.94;5115234;28;20445;-77
2022/08/02 05:57:45;;;;;;;9.07;4.10;;;;;;;24.57;45.96;100593.78;5114639;28;20467;-76
2022/08/02 06:00:14;;;;;;;3.70;3.40;;;;;;;25.12;45.65;100593.81;5113277;27;20433;-76
2022/08/02 06:03:00;;;;;;;6.73;4.07;;;;;;;24.67;46.59;100593.25;5117565;28;20450;-76
2022/08/02 06:05:29;;;;;;;6.90;3.60;;;;;;;24.58;46.75;100595.44;5115059;28;20821;-76
2022/08/02 06:07:58;;;;;;;5.43;3.50;;;;;;;25.21;45.18;100590.75;5118421;28;20456;-76
2022/08/02 06:10:27;;;;;;;5.67;3.37;;;;;;;24.86;46.39;100603.16;5117337;28;20423;-76
2022/08/02 06:13:01;;;;;;;6.60;3.37;;;;;;;25.52;45.11;100587.03;5115856;28;20446;-77
2022/08/02 06:15:28;;;;;;;5.40;3.17;;;;;;;24.94;46.60;100600.09;5127384;28;20466;-76
2022/08/02 06:17:56;;;;;;;5.70;3.60;;;;;;;25.45;45.39;100589.88;5116034;28;20454;-76
2022/08/02 06:20:23;;;;;;;6.10;3.63;;;;;;;25.88;44.57;100604.41;5116023;28;20610;-75
2022/08/02 06:22:50;;;;;;;8.57;4.17;;;;;;;27.17;42.18;100605.63;5109338;28;20516;-75
2022/08/02 06:25:19;;;;;;;6.30;3.57;;;;;;;27.18;41.41;100618.25;5116741;27;20529;-75
2022/08/02 06:27:46;;;;;;;9.20;4.70;;;;;;;27.58;40.76;100607.31;5120557;28;20446;-75
2022/08/02 06:30:15;;;;;;;6.87;3.80;;;;;;;26.98;42.16;100607.69;5121128;27;21042;-66
2022/08/02 06:32:43;;;;;;;6.23;3.53;;;;;;;27.28;41.72;100593.81;5120244;28;20450;-68
2022/08/02 06:35:10;;;;;;;7.97;4.67;;;;;;;27.02;42.39;100598.72;5119895;28;20498;-75
2022/08/02 06:37:38;;;;;;;6.23;3.80;;;;;;;27.64;40.97;100605.50;5115830;28;20506;-76
2022/08/02 06:40:12;;;;;;;8.50;4.10;;;;;;;27.73;41.12;100603.19;5121176;28;20430;-75
2022/08/02 06:42:45;;;;;;;5.83;3.87;;;;;;;27.71;41.15;100599.88;5110304;28;20462;-76
2022/08/02 06:45:14;;;;;;;5.57;3.67;;;;;;;28.13;40.65;100592.13;5120302;28;20502;-76
2022/08/02 06:47:41;;;;;;;5.10;3.53;;;;;;;27.31;42.77;100586.97;5118628;28;21226;-76
2022/08/02 06:50:09;;;;;;;10.80;4.07;;;;;;;27.37;43.30;100575.88;5119385;27;20457;-76
2022/08/02 06:52:35;;;;;;;5.73;4.93;;;;;;;30.87;35.75;100572.09;5121402;28;20864;-76
2022/08/02 06:55:05;;;;;;;6.13;5.00;;;;;;;30.27;36.49;100566.72;5121393;28;20426;-76
2022/08/02 06:57:32;;;;;;;8.27;4.67;;;;;;;29.02;38.82;100578.59;5119875;28;20438;-76
2022/08/02 07:00:01;;;;;;;10.90;5.00;;;;;;;29.47;38.03;100575.59;5120718;28;20435;-75
2022/08/02 07:02:30;;;;;;;7.83;5.23;;;;;;;29.96;36.63;100571.97;5118509;28;21017;-76
2022/08/02 07:04:57;;;;;;;6.20;4.97;;;;;;;30.31;36.02;100565.13;5119284;28;20511;-76
2022/08/02 07:07:24;;;;;;;7.20;4.90;;;;;;;30.13;36.83;100562.75;5120135;28;20508;-74
2022/08/02 07:09:50;;;;;;;6.47;5.00;;;;;;;30.28;36.31;100553.78;5120154;28;20463;-74
2022/08/02 07:12:17;;;;;;;10.87;5.73;;;;;;;29.41;38.89;100562.88;5118500;28;20498;-74
2022/08/02 07:14:44;;;;;;;4.90;3.90;;;;;;;31.08;35.64;100556.50;5120490;28;20438;-74
2022/08/02 07:17:11;;;;;;;6.77;3.53;;;;;;;30.65;36.35;100558.47;5133725;27;20473;-74
2022/08/02 07:19:40;;;;;;;9.63;4.20;;;;;;;28.87;39.99;100566.31;5127531;27;20439;-73
2022/08/02 07:22:07;;;;;;;5.70;3.07;;;;;;;30.37;36.83;100577.84;5118681;28;20474;-74
2022/08/02 07:24:34;;;;;;;10.80;3.50;;;;;;;30.34;35.65;100580.28;5120018;28;20466;-74
2022/08/02 07:27:00;;;;;;;5.47;3.50;;;;;;;31.22;34.50;100576.16;5118692;28;21307;-74
2022/08/02 07:29:27;;;;;;;6.73;3.00;;;;;;;30.04;35.68;100571.50;5120148;28;20422;-74
2022/08/02 07:31:54;;;;;;;4.60;3.03;;;;;;;30.54;34.85;100572.19;5119655;28;20462;-74
2022/08/02 07:34:20;;;;;;;6.17;3.30;;;;;;;30.09;34.58;100567.16;5119217;28;20435;-74
2022/08/02 07:36:48;;;;;;;7.10;3.33;;;;;;;29.74;35.41;100566.53;5117151;27;20557;-74
2022/08/02 07:39:15;;;;;;;7.97;3.50;;;;;;;29.29;36.29;100573.19;5119400;28;20438;-74
2022/08/02 07:41:42;;;;;;;6.33;3.50;;;;;;;29.80;36.29;100553.66;5118512;28;20478;-74
2022/08/02 07:44:09;;;;;;;6.30;3.60;;;;;;;29.93;36.16;100555.97;5119117;28;20446;-74
2022/08/02 07:46:35;;;;;;;9.20;3.87;;;;;;;29.38;37.30;100557.88;5117822;28;20495;-74
2022/08/02 07:49:02;;;;;;;5.70;3.90;;;;;;;30.21;36.04;100568.63;5117960;28;20442;-73
2022/08/02 07:51:31;;;;;;;5.43;3.80;;;;;;;29.90;35.78;100556.50;5118689;28;20470;-73
2022/08/02 07:54:00;;;;;;;6.10;3.40;;;;;;;29.61;36.23;100562.25;5119651;28;20505;-74
2022/08/02 07:56:26;;;;;;;9.40;5.00;;;;;;;28.71;38.44;100567.19;5116953;28;20995;-74
2022/08/02 07:58:53;;;;;;;5.17;3.90;;;;;;;30.12;36.00;100558.31;5118611;28;20468;-74
2022/08/02 08:01:20;;;;;;;6.67;3.23;;;;;;;30.26;35.54;100559.56;5118755;28;20518;-73
2022/08/02 08:03:47;;;;;;;5.77;3.63;;;;;;;28.80;38.81;100565.69;5117338;28;20450;-74
2022/08/02 08:06:13;;;;;;;7.03;4.20;;;;;;;29.50;37.14;100563.25;5118539;27;20474;-73
2022/08/02 08:08:40;;;;;;;4.50;2.90;;;;;;;31.50;33.94;100567.41;5118847;28;20456;-73
2022/08/02 08:11:08;;;;;;;4.43;4.00;;;;;;;30.49;33.87;100549.25;5117417;28;21026;-72
2022/08/02 08:13:35;;;;;;;6.77;3.70;;;;;;;30.86;33.72;100551.94;5119169;28;20487;-72
2022/08/02 08:16:02;;;;;;;5.40;3.47;;;;;;;29.23;37.11;100550.25;5117970;28;20576;-73
2022/08/02 08:18:29;;;;;;;3.73;2.87;;;;;;;30.25;35.07;100555.13;5115867;28;20577;-73
2022/08/02 08:20:56;;;;;;;7.80;3.63;;;;;;;29.67;35.02;100552.13;5118462;28;20473;-73
2022/08/02 08:23:23;;;;;;;3.60;2.77;;;;;;;30.08;31.56;100543.41;5119344;28;20438;-73
2022/08/02 08:25:50;;;;;;;5.23;2.97;;;;;;;29.46;33.61;100543.66;5117214;28;20966;-73
2022/08/02 08:28:18;;;;;;;5.80;3.00;;;;;;;29.67;33.62;100554.88;5118754;28;20442;-74
2022/08/02 08:30:46;;;;;;;5.17;3.43;;;;;;;31.02;32.76;100557.56;5117268;28;20474;-74
2022/08/02 08:33:13;;;;;;;7.17;2.50;;;;;;;32.32;27.45;100544.53;5117041;28;20543;-73
2022/08/02 08:35:40;;;;;;;4.30;2.90;;;;;;;32.17;29.77;100542.63;5118180;28;20569;-73
2022/08/02 08:38:07;;;;;;;6.70;3.60;;;;;;;30.40;32.75;100535.97;5118805;28;20485;-73
2022/08/02 08:40:34;;;;;;;5.03;3.20;;;;;;;29.74;34.55;100536.22;5116114;27;20537;-73
2022/08/02 08:43:00;;;;;;;7.10;2.93;;;;;;;30.42;33.86;100542.03;5118353;28;20472;-73
2022/08/02 08:45:29;;;;;;;4.13;2.20;;;;;;;30.50;32.86;100526.94;5117926;28;20519;-73
2022/08/02 08:48:01;;;;;;;3.43;2.63;;;;;;;30.63;32.36;100533.06;5115322;28;20454;-73
2022/08/02 08:50:30;;;;;;;3.70;2.53;;;;;;;31.23;30.94;100531.69;5117764;28;20533;-73
2022/08/02 08:53:03;;;;;;;3.10;2.43;;;;;;;31.83;29.67;100534.03;5117906;28;20445;-73
2022/08/02 08:55:30;;;;;;;5.90;2.90;;;;;;;30.42;30.72;100531.00;5116251;28;21071;-73
2022/08/02 08:57:58;;;;;;;5.53;2.63;;;;;;;30.48;30.16;100533.78;5117364;28;20535;-73
2022/08/02 09:00:26;;;;;;;6.07;3.83;;;;;;;30.28;31.12;100537.22;5117549;28;20434;-73
2022/08/02 09:02:55;;;;;;;3.73;2.47;;;;;;;31.13;31.47;100542.72;5116167;28;20484;-73
2022/08/02 09:05:22;;;;;;;7.10;2.90;;;;;;;31.40;29.53;100533.38;5115727;28;20474;-73
2022/08/02 09:07:50;;;;;;;5.50;2.73;;;;;;;30.42;32.91;100535.69;5118323;28;20449;-73
2022/08/02 09:10:35;;;;;;;9.73;3.30;;;;;;;31.00;31.20;100529.38;5116260;28;20472;-72
2022/08/02 09:13:14;;;;;;;3.47;3.03;;;;;;;29.56;33.10;100533.81;5118585;28;20491;-73
2022/08/02 09:15:41;;;;;;;6.70;2.47;;;;;;;29.71;33.89;100530.38;5117184;28;20468;-73
2022/08/02 09:18:10;;;;;;;5.00;2.43;;;;;;;29.87;32.21;100523.94;5115671;28;20446;-73
2022/08/02 09:20:52;;;;;;;6.40;2.97;;;;;;;30.67;32.02;100532.25;5116908;28;20982;-72
2022/08/02 09:23:21;;;;;;;4.90;2.70;;;;;;;31.22;31.64;100527.25;5118142;28;20422;-72
2022/08/02 09:25:56;;;;;;;5.33;2.60;;;;;;;31.39;31.57;100529.78;5116717;28;20474;-72
2022/08/02 09:28:27;;;;;;;5.23;3.50;;;;;;;31.38;31.17;100530.88;5109371;28;20438;-72
2022/08/02 09:30:56;;;;;;;3.50;3.20;;;;;;;29.90;34.15;100528.94;5116617;28;21070;-72
2022/08/02 09:33:28;;;;;;;4.27;3.60;;;;;;;31.08;32.27;100535.22;5116988;28;21039;-71
2022/08/02 09:36:02;;;;;;;3.03;2.73;;;;;;;30.16;33.96;100531.91;5117648;28;20530;-71
2022/08/02 09:38:29;;;;;;;4.17;3.10;;;;;;;29.99;34.14;100535.63;5116853;28;20481;-72
2022/08/02 09:40:57;;;;;;;5.63;2.73;;;;;;;30.60;33.15;100538.00;5116299;27;20775;-71
2022/08/02 09:43:35;;;;;;;5.37;3.00;;;;;;;30.69;31.16;100527.28;5118221;28;20575;-71
2022/08/02 09:46:10;;;;;;;3.10;2.27;;;;;;;30.40;32.23;100522.16;5116510;28;20478;-72
2022/08/02 09:48:51;;;;;;;3.57;2.50;;;;;;;30.54;32.23;100525.28;5113669;28;21110;-72
2022/08/02 09:51:22;;;;;;;6.73;2.63;;;;;;;30.35;32.96;100522.13;5116932;28;20541;-72
2022/08/02 09:53:51;;;;;;;3.87;2.20;;;;;;;31.83;30.69;100517.44;5116636;28;21014;-72
2022/08/02 09:56:18;;;;;;;4.07;2.70;;;;;;;31.70;31.04;100527.94;5133162;27;20473;-73
2022/08/02 09:58:46;;;;;;;4.30;2.57;;;;;;;32.44;30.53;100522.09;5118485;28;20452;-72
2022/08/02 10:01:12;;;;;;;3.40;1.93;;;;;;;33.72;29.32;100531.81;5119586;28;20482;-73
2022/08/02 10:03:55;;;;;;;3.40;2.53;;;;;;;30.98;31.28;100533.25;5120937;28;20479;-74
2022/08/02 10:06:22;;;;;;;3.23;2.73;;;;;;;30.92;31.39;100519.69;5120965;28;20589;-72
2022/08/02 10:08:49;;;;;;;3.13;2.27;;;;;;;32.23;29.62;100526.84;5119855;28;20434;-72
2022/08/02 10:11:16;;;;;;;3.10;2.43;;;;;;;32.37;29.79;100524.31;5120775;28;20568;-73
2022/08/02 10:13:43;;;;;;;5.53;3.10;;;;;;;32.30;30.60;100523.78;5121808;28;20533;-74
2022/08/02 10:16:11;;;;;;;4.90;2.47;;;;;;;32.27;30.13;100522.41;5119771;28;20466;-71
2022/08/02 10:18:38;;;;;;;6.67;2.50;;;;;;;32.51;29.81;100513.50;5120634;28;20450;-73
2022/08/02 10:21:12;;;;;;;4.07;2.80;;;;;;;31.64;31.00;100514.38;5120985;28;20468;-71
2022/08/02 10:23:40;;;;;;;3.63;2.77;;;;;;;30.77;32.41;100517.66;5121318;28;20463;-71
2022/08/02 10:26:08;;;;;;;3.90;2.50;;;;;;;30.94;32.48;100523.03;5120704;28;20474;-72
2022/08/02 10:28:35;;;;;;;2.40;2.20;;;;;;;32.07;29.98;100515.78;5122058;28;20438;-72
2022/08/02 10:31:04;;;;;;;4.60;2.63;;;;;;;31.69;30.60;100517.97;5119763;28;20469;-72
2022/08/02 10:33:33;;;;;;;4.00;2.53;;;;;;;32.05;30.80;100520.78;5120566;28;20446;-72
2022/08/02 10:36:01;;;;;;;2.53;2.10;;;;;;;32.01;30.52;100511.34;5120487;28;20505;-71
2022/08/02 10:38:29;;;;;;;3.73;2.30;;;;;;;31.21;32.35;100509.00;5118360;28;20477;-72
2022/08/02 10:40:56;;;;;;;3.00;2.30;;;;;;;31.95;32.66;100508.88;5113190;28;21093;-71
2022/08/02 10:43:45;;;;;;;2.83;2.13;;;;;;;31.92;30.59;100501.94;5107019;28;20515;-70
2022/08/02 10:46:34;;;;;;;4.10;2.90;;;;;;;31.13;32.59;100498.50;5113770;28;20508;-64
2022/08/02 10:49:03;;;;;;;4.80;2.57;;;;;;;31.65;31.42;100502.22;5118950;27;20473;-64
2022/08/02 10:52:18;;;;;;;2.40;2.20;;;;;;;31.97;31.66;100507.47;5119446;28;20507;-64
2022/08/02 10:54:50;;;;;;;5.90;2.30;;;;;;;31.82;30.98;100502.78;5119558;28;20489;-64
2022/08/02 10:57:21;;;;;;;2.90;2.60;;;;;;;32.52;30.55;100510.47;5119356;28;20519;-64
2022/08/02 10:59:48;;;;;;;3.60;2.30;;;;;;;32.35;31.05;100510.78;5118913;28;20503;-64
2022/08/02 11:02:33;;;;;;;2.67;2.30;;;;;;;31.30;33.25;100501.88;5118816;28;20503;-64
2022/08/02 11:05:02;;;;;;;2.70;2.50;;;;;;;32.16;31.18;100504.16;5119751;28;20446;-64
2022/08/02 11:07:35;;;;;;;2.80;2.50;;;;;;;31.94;31.69;100494.19;5117899;28;21224;-64
2022/08/02 11:10:43;;;;;;;5.03;2.80;;;;;;;31.68;31.03;100501.66;5119761;28;20427;-63
2022/08/02 11:13:13;;;;;;;3.20;2.10;;;;;;;31.14;31.74;100492.72;5125631;27;20457;-63
2022/08/02 11:15:59;;;;;;;3.90;1.70;;;;;;;31.79;32.03;100497.81;5118642;28;20473;-63
2022/08/02 11:18:59;;;;;;;4.10;3.00;;;;;;;31.35;31.97;100492.75;5118579;28;20517;-63
2022/08/02 11:21:27;;;;;;;4.03;2.47;;;;;;;31.72;31.67;100486.19;5116216;28;20470;-63
2022/08/02 11:23:54;;;;;;;3.97;2.63;;;;;;;32.58;30.65;100494.66;5119277;28;20435;-63
2022/08/02 11:26:45;;;;;;;4.70;2.87;;;;;;;33.04;29.86;100483.41;5118236;28;20488;-65
2022/08/02 11:29:12;;;;;;;3.80;2.23;;;;;;;32.04;31.38;100494.19;5116504;28;20435;-65
2022/08/02 11:31:41;;;;;;;3.67;2.67;;;;;;;30.71;32.47;100489.22;5118838;28;20578;-65
2022/08/02 11:34:09;;;;;;;6.53;2.17;;;;;;;30.62;33.02;100490.00;5118914;28;20465;-64